Time;durP1;ratioP1;P1;durP2;ratioP2;P2;SDS_P1;SDS_P2;PMS_P1;PMS_P2;Temp;Humidity;BMP_temperature;BMP_pressure;BME280_temperature;BME280_humidity;BME280_pressure;Samples;Min_cycle;Max_cycle;Signal;HPM_P1;HPM_P2
2022/04/25 00:01:37;;;;;;;5.18;3.25;;;17.30;66.80;;;;;;5033651;28;20025;-64
2022/04/25 00:04:04;;;;;;;7.50;2.88;;;17.30;66.80;;;;;;5033559;28;20083;-66
2022/04/25 00:06:30;;;;;;;5.07;3.30;;;17.20;66.90;;;;;;5033713;28;20489;-65
2022/04/25 00:08:56;;;;;;;5.20;3.20;;;17.20;67.00;;;;;;5033449;28;20538;-62
2022/04/25 00:11:22;;;;;;;8.57;3.40;;;17.20;66.90;;;;;;5033622;28;20083;-66
2022/04/25 00:13:47;;;;;;;6.07;2.95;;;17.20;67.00;;;;;;5033505;28;20018;-65
2022/04/25 00:16:13;;;;;;;5.30;2.88;;;17.10;67.10;;;;;;5033568;28;20025;-61
2022/04/25 00:18:39;;;;;;;6.93;3.90;;;17.10;67.10;;;;;;5032918;28;20022;-65
2022/04/25 00:21:05;;;;;;;5.18;2.92;;;17.10;67.20;;;;;;5033496;28;20487;-64
2022/04/25 00:23:32;;;;;;;6.07;3.33;;;17.00;67.60;;;;;;5033399;28;20048;-65
2022/04/25 00:25:57;;;;;;;6.38;3.70;;;17.00;67.60;;;;;;5033544;28;20049;-66
2022/04/25 00:28:23;;;;;;;5.22;3.30;;;17.10;67.50;;;;;;5032890;28;20029;-66
2022/04/25 00:30:49;;;;;;;5.50;2.85;;;16.90;67.70;;;;;;5033378;28;20033;-66
2022/04/25 00:33:15;;;;;;;8.30;3.22;;;17.00;68.00;;;;;;5032943;28;20104;-66
2022/04/25 00:35:41;;;;;;;5.90;3.80;;;16.90;68.00;;;;;;5033187;28;20021;-65
2022/04/25 00:38:08;;;;;;;7.47;3.90;;;17.00;67.90;;;;;;5033241;28;20021;-66
2022/04/25 00:40:34;;;;;;;5.03;3.30;;;16.90;68.00;;;;;;5031717;28;20390;-66
2022/04/25 00:42:59;;;;;;;5.35;3.50;;;16.90;68.10;;;;;;5031533;28;20017;-56
2022/04/25 00:45:25;;;;;;;7.63;3.53;;;16.80;68.30;;;;;;5033152;28;20467;-56
2022/04/25 00:47:51;;;;;;;6.15;3.40;;;16.90;68.20;;;;;;5032794;28;20060;-54
2022/04/25 00:50:16;;;;;;;5.28;3.70;;;16.80;68.30;;;;;;5033067;28;20030;-64
2022/04/25 00:52:42;;;;;;;4.93;3.60;;;16.90;68.40;;;;;;5032690;28;20610;-64
2022/04/25 00:55:10;;;;;;;5.95;3.40;;;16.80;68.50;;;;;;5032914;28;20033;-62
2022/04/25 00:57:37;;;;;;;8.80;3.17;;;16.70;68.60;;;;;;5033144;28;20485;-66
2022/04/25 01:00:11;;;;;;;5.50;4.00;;;16.80;68.70;;;;;;5032982;28;20025;-66
2022/04/25 01:02:39;;;;;;;7.97;3.90;;;16.70;68.80;;;;;;5032501;28;20029;-64
2022/04/25 01:05:05;;;;;;;6.20;4.35;;;16.70;68.80;;;;;;5032764;28;20013;-66
2022/04/25 01:07:35;;;;;;;7.35;4.10;;;16.70;69.10;;;;;;5032671;28;20021;-66
2022/04/25 01:10:02;;;;;;;4.95;3.65;;;16.70;69.30;;;;;;5036681;28;20040;-66
2022/04/25 01:12:28;;;;;;;7.07;3.95;;;16.70;69.20;;;;;;5037016;28;20014;-65
2022/04/25 01:15:04;;;;;;;7.00;4.68;;;16.70;69.40;;;;;;5036867;28;20103;-65
2022/04/25 01:17:29;;;;;;;8.18;4.88;;;16.70;69.20;;;;;;5036377;28;20060;-66
2022/04/25 01:19:55;;;;;;;6.47;4.68;;;16.60;69.40;;;;;;5036700;28;20033;-66
2022/04/25 01:22:32;;;;;;;6.95;4.90;;;16.60;69.50;;;;;;5036885;28;20030;-65
2022/04/25 01:27:42;;;;;;;10.85;5.13;;;16.60;69.60;;;;;;5036710;28;20448;-66
2022/04/25 01:30:09;;;;;;;7.72;4.90;;;16.60;69.60;;;;;;5036430;28;20483;-66
2022/04/25 01:32:36;;;;;;;11.50;5.50;;;16.50;69.90;;;;;;5036133;28;20024;-66
2022/04/25 01:35:01;;;;;;;6.47;4.80;;;16.50;70.10;;;;;;5035235;28;20026;-66
2022/04/25 01:37:27;;;;;;;9.68;4.43;;;16.40;70.20;;;;;;5036691;28;20589;-64
2022/04/25 01:39:54;;;;;;;6.18;5.05;;;16.40;70.80;;;;;;5036265;28;20025;-65
2022/04/25 01:42:21;;;;;;;8.00;5.85;;;16.40;70.20;;;;;;5036508;28;20039;-58
2022/04/25 01:44:47;;;;;;;6.32;4.75;;;16.50;70.20;;;;;;5035805;28;20053;-65
2022/04/25 01:47:13;;;;;;;7.70;5.10;;;16.40;70.20;;;;;;5036252;28;20057;-66
2022/04/25 01:49:39;;;;;;;9.45;5.47;;;16.40;70.30;;;;;;5036087;28;20461;-66
2022/04/25 01:52:29;;;;;;;8.98;5.60;;;16.40;70.40;;;;;;5036137;28;20026;-63
2022/04/25 01:54:55;;;;;;;8.00;5.90;;;16.40;70.20;;;;;;5037873;28;20083;-66
2022/04/25 01:57:21;;;;;;;6.45;4.88;;;16.40;70.30;;;;;;5036147;28;20071;-65
2022/04/25 01:59:46;;;;;;;7.60;5.88;;;16.40;70.40;;;;;;5035530;28;20066;-66
2022/04/25 02:02:13;;;;;;;7.88;5.05;;;16.30;70.40;;;;;;5036043;28;20164;-66
2022/04/25 02:04:40;;;;;;;9.57;5.60;;;16.30;70.50;;;;;;5035830;28;20053;-64
2022/04/25 02:07:07;;;;;;;8.02;5.57;;;16.30;70.60;;;;;;5035988;28;20033;-66
2022/04/25 02:09:33;;;;;;;7.65;5.50;;;16.20;70.80;;;;;;5035685;28;20091;-66
2022/04/25 02:11:59;;;;;;;9.43;5.13;;;16.20;71.00;;;;;;5035769;28;20026;-66
2022/04/25 02:14:25;;;;;;;8.77;5.32;;;16.30;70.80;;;;;;5035432;28;20379;-66
2022/04/25 02:16:50;;;;;;;10.57;6.28;;;16.20;71.00;;;;;;5035936;28;20029;-64
2022/04/25 02:19:16;;;;;;;9.60;5.68;;;16.20;71.20;;;;;;5035594;28;20084;-65
2022/04/25 02:21:42;;;;;;;8.13;5.45;;;16.10;71.20;;;;;;5035410;28;20095;-66
2022/04/25 02:24:07;;;;;;;7.57;5.80;;;16.10;71.30;;;;;;5035727;28;20475;-65
2022/04/25 02:26:33;;;;;;;7.80;5.57;;;16.00;71.40;;;;;;5035364;28;20037;-65
2022/04/25 02:28:58;;;;;;;8.05;5.22;;;16.10;71.50;;;;;;5034915;28;20117;-65
2022/04/25 02:31:24;;;;;;;7.38;5.97;;;16.00;71.60;;;;;;5035594;28;20033;-65
2022/04/25 02:33:50;;;;;;;9.52;5.80;;;16.00;71.60;;;;;;5035716;28;20033;-65
2022/04/25 02:36:16;;;;;;;8.55;5.57;;;16.00;71.60;;;;;;5035353;28;20048;-61
2022/04/25 02:38:42;;;;;;;9.48;5.85;;;16.00;71.60;;;;;;5035439;28;20379;-64
2022/04/25 02:41:11;;;;;;;6.43;5.05;;;16.00;71.60;;;;;;5035293;28;20024;-59
2022/04/25 02:43:39;;;;;;;7.95;5.57;;;15.90;71.80;;;;;;5035132;28;20018;-63
2022/04/25 02:46:07;;;;;;;12.68;6.57;;;15.90;71.90;;;;;;5035102;28;20056;-57
2022/04/25 02:48:34;;;;;;;8.02;5.40;;;16.00;71.90;;;;;;5029606;28;20655;-64
2022/04/25 02:51:01;;;;;;;9.93;5.95;;;16.00;71.80;;;;;;5029197;28;20117;-58
2022/04/25 02:53:27;;;;;;;8.27;6.30;;;16.00;71.80;;;;;;5015212;28;20029;-58
2022/04/25 02:55:53;;;;;;;9.43;5.82;;;15.90;71.70;;;;;;5014762;28;20030;-58
2022/04/25 02:58:23;;;;;;;11.43;6.55;;;15.90;72.00;;;;;;5013490;28;20024;-64
2022/04/25 03:00:49;;;;;;;8.85;6.15;;;16.00;71.80;;;;;;5014867;28;20112;-65
2022/04/25 03:03:17;;;;;;;9.43;6.55;;;15.90;72.10;;;;;;5015003;28;20022;-55
2022/04/25 03:05:49;;;;;;;9.55;6.22;;;15.90;71.80;;;;;;5014731;28;20030;-58
2022/04/25 03:08:18;;;;;;;9.10;5.72;;;15.80;72.20;;;;;;5014700;28;20022;-65
2022/04/25 03:10:45;;;;;;;9.27;5.97;;;15.90;72.10;;;;;;5014588;28;20037;-57
2022/04/25 03:13:12;;;;;;;10.70;6.38;;;15.90;72.00;;;;;;5014635;28;20104;-55
2022/04/25 03:15:41;;;;;;;8.98;6.13;;;15.80;72.20;;;;;;5014779;28;20030;-64
2022/04/25 03:18:11;;;;;;;7.57;6.75;;;15.80;72.10;;;;;;5014789;28;20033;-56
2022/04/25 03:20:38;;;;;;;7.50;6.15;;;15.80;72.20;;;;;;5014616;28;20083;-56
2022/04/25 03:23:07;;;;;;;10.10;7.05;;;15.80;73.00;;;;;;5014442;28;20053;-58
2022/04/25 03:25:33;;;;;;;8.88;6.22;;;15.60;72.70;;;;;;5014629;28;20034;-60
2022/04/25 03:27:59;;;;;;;8.77;7.05;;;15.60;72.90;;;;;;5013978;28;20037;-66
2022/04/25 03:30:25;;;;;;;7.07;6.05;;;15.50;73.10;;;;;;5014402;28;20040;-59
2022/04/25 03:32:52;;;;;;;10.32;6.03;;;15.50;73.20;;;;;;5014201;28;20467;-53
2022/04/25 03:35:19;;;;;;;10.43;7.30;;;15.50;73.10;;;;;;5014031;28;20131;-51
2022/04/25 03:37:46;;;;;;;8.88;6.32;;;15.50;73.30;;;;;;5014289;28;20037;-65
2022/04/25 03:40:13;;;;;;;8.35;6.47;;;15.40;73.30;;;;;;5014490;28;20022;-66
2022/04/25 03:42:40;;;;;;;9.23;6.70;;;15.40;73.50;;;;;;5013984;28;20022;-55
2022/04/25 03:45:09;;;;;;;7.95;6.43;;;15.40;73.60;;;;;;5014569;28;20108;-67
2022/04/25 03:47:35;;;;;;;7.15;6.13;;;15.40;73.60;;;;;;5014143;28;20101;-59
2022/04/25 03:50:01;;;;;;;6.72;5.35;;;15.40;73.90;;;;;;5014103;28;20092;-64
2022/04/25 03:52:26;;;;;;;7.88;6.22;;;15.30;73.80;;;;;;5014120;28;20026;-66
2022/04/25 03:57:37;;;;;;;7.30;5.97;;;15.30;74.00;;;;;;5014097;28;20028;-56
2022/04/25 04:00:05;;;;;;;9.18;5.78;;;15.30;74.10;;;;;;5014118;28;20104;-54
2022/04/25 04:02:30;;;;;;;10.35;6.35;;;15.30;74.00;;;;;;5013990;28;20099;-59
2022/04/25 04:04:56;;;;;;;10.40;6.28;;;15.30;74.10;;;;;;5013967;28;20029;-66
2022/04/25 04:07:21;;;;;;;10.98;6.95;;;15.20;74.20;;;;;;5014004;28;20034;-52
2022/04/25 04:09:50;;;;;;;8.90;6.25;;;15.20;74.20;;;;;;5013574;28;20038;-53
2022/04/25 04:12:17;;;;;;;11.98;6.82;;;15.20;74.30;;;;;;5013882;28;20022;-56
2022/04/25 04:14:43;;;;;;;8.82;7.40;;;15.20;74.40;;;;;;5013924;28;20034;-52
2022/04/25 04:17:09;;;;;;;8.98;6.22;;;15.20;74.40;;;;;;5013651;28;20529;-62
2022/04/25 04:19:36;;;;;;;9.70;6.82;;;15.20;74.40;;;;;;5012472;28;20022;-54
2022/04/25 04:22:05;;;;;;;10.88;6.35;;;15.20;74.50;;;;;;5013673;28;20026;-52
2022/04/25 04:24:34;;;;;;;7.60;6.28;;;15.20;74.50;;;;;;5013473;28;20391;-51
2022/04/25 04:27:05;;;;;;;9.77;7.35;;;15.20;74.70;;;;;;5013418;28;20037;-54
2022/04/25 04:29:32;;;;;;;9.57;6.65;;;15.20;74.60;;;;;;5013395;28;20047;-53
2022/04/25 04:32:00;;;;;;;9.20;6.30;;;15.10;74.70;;;;;;5013548;28;20053;-53
2022/04/25 04:34:26;;;;;;;6.78;5.78;;;15.10;74.80;;;;;;5013682;28;20026;-56
2022/04/25 04:36:51;;;;;;;8.85;6.25;;;15.10;75.00;;;;;;5013406;28;20022;-54
2022/04/25 04:39:17;;;;;;;9.27;6.65;;;15.10;75.10;;;;;;5013272;28;20014;-53
2022/04/25 04:41:44;;;;;;;9.50;6.55;;;15.10;75.00;;;;;;5028311;28;20048;-53
2022/04/25 04:44:09;;;;;;;10.93;7.28;;;15.10;74.80;;;;;;5030828;28;20029;-52
2022/04/25 04:46:35;;;;;;;11.52;6.57;;;15.10;75.00;;;;;;5033129;28;20379;-55
2022/04/25 04:49:00;;;;;;;9.60;6.80;;;15.10;75.10;;;;;;5032320;28;20037;-57
2022/04/25 04:51:26;;;;;;;10.50;6.90;;;15.00;75.10;;;;;;5032113;28;20117;-52
2022/04/25 04:53:52;;;;;;;13.98;9.38;;;15.10;75.00;;;;;;5030761;28;20044;-52
2022/04/25 04:56:17;;;;;;;12.85;9.40;;;15.10;74.40;;;;;;5020474;28;20038;-54
2022/04/25 04:58:43;;;;;;;13.00;9.43;;;15.10;74.40;;;;;;5013400;28;20029;-62
2022/04/25 05:01:09;;;;;;;12.68;9.57;;;15.00;74.30;;;;;;5030205;28;20386;-64
2022/04/25 05:03:34;;;;;;;14.02;9.85;;;15.00;74.60;;;;;;5032263;28;20403;-64
2022/04/25 05:06:00;;;;;;;11.65;8.38;;;15.00;74.60;;;;;;5030674;28;20486;-65
2022/04/25 05:08:26;;;;;;;12.25;9.82;;;15.00;74.90;;;;;;5031736;28;20025;-60
2022/04/25 05:10:54;;;;;;;15.20;9.32;;;15.00;74.60;;;;;;5032725;28;20501;-64
2022/04/25 05:13:20;;;;;;;10.23;9.13;;;14.90;74.70;;;;;;5030409;28;20026;-64
2022/04/25 05:15:46;;;;;;;12.40;8.88;;;15.00;74.60;;;;;;5033930;28;20021;-58
2022/04/25 05:18:12;;;;;;;14.65;9.55;;;14.90;74.50;;;;;;5027590;28;20036;-61
2022/04/25 05:20:37;;;;;;;11.73;8.65;;;14.90;74.40;;;;;;5030177;28;20026;-65
2022/04/25 05:23:04;;;;;;;15.48;8.30;;;14.90;74.60;;;;;;5031144;28;20021;-65
2022/04/25 05:25:29;;;;;;;13.05;9.20;;;14.90;74.60;;;;;;5027218;28;20471;-66
2022/04/25 05:27:56;;;;;;;14.38;9.07;;;14.90;74.80;;;;;;5023811;28;20030;-65
2022/04/25 05:30:24;;;;;;;15.05;8.85;;;14.90;74.40;;;;;;5036266;28;20036;-66
2022/04/25 05:32:57;;;;;;;13.13;8.80;;;14.90;74.50;;;;;;5031845;28;20022;-61
2022/04/25 05:35:28;;;;;;;13.25;8.88;;;14.90;74.30;;;;;;5031626;28;20028;-58
2022/04/25 05:37:54;;;;;;;14.95;8.25;;;14.90;74.30;;;;;;5030661;28;20022;-60
2022/04/25 05:40:20;;;;;;;12.18;8.27;;;14.90;74.00;;;;;;5029102;28;20025;-60
2022/04/25 05:42:47;;;;;;;11.10;7.95;;;14.90;73.90;;;;;;5027492;28;20378;-61
2022/04/25 05:45:15;;;;;;;12.73;8.43;;;14.80;74.10;;;;;;5030325;28;20025;-56
2022/04/25 05:47:40;;;;;;;9.85;8.02;;;14.90;74.50;;;;;;5027664;28;20606;-59
2022/04/25 05:52:52;;;;;;;9.75;6.72;;;15.00;74.60;;;;;;5022171;28;20040;-63
2022/04/25 05:55:18;;;;;;;12.48;8.02;;;15.00;75.10;;;;;;5029130;28;20037;-57
2022/04/25 05:57:44;;;;;;;11.23;8.55;;;15.00;74.40;;;;;;5033620;28;20387;-65
2022/04/25 06:00:12;;;;;;;12.73;7.82;;;15.10;73.40;;;;;;5037596;28;20474;-64
2022/04/25 06:02:39;;;;;;;9.38;7.43;;;15.10;72.70;;;;;;5041998;28;20028;-59
2022/04/25 06:05:06;;;;;;;11.75;7.55;;;15.10;72.50;;;;;;5023926;28;20022;-60
2022/04/25 06:07:35;;;;;;;12.23;7.75;;;15.10;72.50;;;;;;5030958;28;20029;-63
2022/04/25 06:10:01;;;;;;;11.10;7.45;;;15.10;72.60;;;;;;5031891;28;20514;-52
2022/04/25 06:12:29;;;;;;;12.10;8.00;;;15.00;72.90;;;;;;5029259;28;20057;-63
2022/04/25 06:14:58;;;;;;;13.05;8.10;;;15.10;72.90;;;;;;5034461;28;20025;-63
2022/04/25 06:17:23;;;;;;;15.05;8.50;;;15.10;72.70;;;;;;5034260;28;20025;-58
2022/04/25 06:19:49;;;;;;;12.60;8.85;;;15.10;72.80;;;;;;5035147;28;20029;-61
2022/04/25 06:22:17;;;;;;;12.10;8.25;;;15.10;73.00;;;;;;5033442;28;20010;-61
2022/04/25 06:24:43;;;;;;;12.20;8.18;;;15.10;73.20;;;;;;5035234;28;20029;-59
2022/04/25 06:27:09;;;;;;;12.40;8.65;;;15.10;73.30;;;;;;5034246;28;20029;-65
2022/04/25 06:29:35;;;;;;;14.32;8.88;;;15.10;73.30;;;;;;5035114;28;20448;-60
2022/04/25 06:32:05;;;;;;;12.00;8.20;;;15.00;73.40;;;;;;5035319;28;20032;-66
2022/04/25 06:34:31;;;;;;;11.32;8.10;;;15.10;73.80;;;;;;5035409;28;20238;-65
2022/04/25 06:36:56;;;;;;;11.38;8.15;;;15.10;73.80;;;;;;5035183;28;20464;-60
2022/04/25 06:39:22;;;;;;;12.55;9.48;;;15.10;73.80;;;;;;5035579;28;20494;-66
2022/04/25 06:41:47;;;;;;;10.70;8.75;;;15.00;73.80;;;;;;5035181;28;20097;-64
2022/04/25 06:44:13;;;;;;;9.90;7.75;;;15.10;74.00;;;;;;5035229;28;20498;-62
2022/04/25 06:46:39;;;;;;;11.30;8.57;;;15.00;74.10;;;;;;5035062;28;20021;-63
2022/04/25 06:51:49;;;;;;;9.43;7.68;;;15.10;74.00;;;;;;5035244;28;20106;-64
2022/04/25 06:54:15;;;;;;;13.85;8.98;;;15.10;74.50;;;;;;5034869;28;20390;-64
2022/04/25 06:56:41;;;;;;;14.95;8.50;;;15.10;74.30;;;;;;5035203;28;20030;-65
2022/04/25 06:59:07;;;;;;;13.18;8.15;;;15.10;74.80;;;;;;5035122;28;20427;-65
2022/04/25 07:01:33;;;;;;;13.02;8.40;;;15.20;74.70;;;;;;5034853;28;20589;-66
2022/04/25 07:03:59;;;;;;;12.68;8.20;;;15.20;74.30;;;;;;5034550;28;20049;-62
2022/04/25 07:06:25;;;;;;;9.80;7.15;;;15.20;73.80;;;;;;5033822;28;20033;-65
2022/04/25 07:08:50;;;;;;;12.73;7.82;;;15.20;73.70;;;;;;5034809;28;20034;-65
2022/04/25 07:11:16;;;;;;;12.00;7.55;;;15.30;73.00;;;;;;5034670;28;20033;-65
2022/04/25 07:13:42;;;;;;;11.18;8.73;;;15.20;72.80;;;;;;5034630;28;20022;-64
2022/04/25 07:16:09;;;;;;;13.57;8.85;;;15.10;73.00;;;;;;5034515;28;20028;-62
2022/04/25 07:18:35;;;;;;;13.80;8.18;;;15.20;73.30;;;;;;5034117;28;20390;-62
2022/04/25 07:28:48;;;;;;;13.90;8.55;;;15.10;73.60;;;;;;5034519;28;20033;-63
2022/04/25 07:29:14;;;;;;;15.07;9.57;;;15.10;74.30;;;;;;5034319;28;20053;-65
2022/04/25 07:31:39;;;;;;;17.63;9.18;;;15.20;74.40;;;;;;5034320;28;20387;-62
2022/04/25 07:34:05;;;;;;;13.32;10.63;;;15.20;74.30;;;;;;5034069;28;20463;-65
2022/04/25 07:36:30;;;;;;;10.75;8.88;;;15.20;74.10;;;;;;5034134;28;20564;-66
2022/04/25 07:38:56;;;;;;;15.10;9.27;;;15.20;74.20;;;;;;5034153;28;20014;-61
2022/04/25 07:41:21;;;;;;;16.45;8.95;;;15.20;74.30;;;;;;5033914;28;20463;-64
2022/04/25 07:43:48;;;;;;;14.10;9.32;;;15.20;74.40;;;;;;5034195;28;20120;-64
2022/04/25 07:46:16;;;;;;;15.90;8.98;;;15.20;74.40;;;;;;5033941;28;20029;-65
2022/04/25 07:48:42;;;;;;;14.73;8.43;;;15.30;74.30;;;;;;5033496;28;20049;-64
2022/04/25 07:51:07;;;;;;;12.45;9.30;;;15.30;74.40;;;;;;5033898;28;20601;-65
2022/04/25 07:53:33;;;;;;;11.23;8.50;;;15.20;74.30;;;;;;5033900;28;20028;-62
2022/04/25 07:55:58;;;;;;;13.35;9.05;;;15.30;74.70;;;;;;5033668;28;20029;-65
2022/04/25 07:58:24;;;;;;;12.52;8.80;;;15.30;75.00;;;;;;5033457;28;20037;-63
2022/04/25 08:00:50;;;;;;;13.45;9.38;;;15.40;74.50;;;;;;5033838;28;20025;-65
2022/04/25 08:03:15;;;;;;;13.32;9.80;;;15.40;74.50;;;;;;5033317;28;20020;-64
2022/04/25 08:05:41;;;;;;;14.27;8.70;;;15.40;74.20;;;;;;5033761;28;20040;-65
2022/04/25 08:08:06;;;;;;;18.23;8.98;;;15.40;74.50;;;;;;5033681;28;20018;-65
2022/04/25 08:10:32;;;;;;;12.07;8.80;;;15.40;74.20;;;;;;5033454;28;20099;-57
2022/04/25 08:18:26;;;;;;;11.07;8.88;;;15.50;74.20;;;;;;5032950;28;20151;-57
2022/04/25 08:20:53;;;;;;;13.93;9.38;;;15.50;73.20;;;;;;5033360;28;20435;-52
2022/04/25 08:23:18;;;;;;;13.93;9.35;;;15.50;72.60;;;;;;5033668;28;20100;-53
2022/04/25 08:25:44;;;;;;;13.23;10.05;;;15.50;72.70;;;;;;5033341;28;20065;-59
2022/04/25 08:28:10;;;;;;;14.48;10.10;;;15.50;72.90;;;;;;5033199;28;20386;-67
2022/04/25 08:30:36;;;;;;;12.75;9.32;;;15.50;72.70;;;;;;5033294;28;20029;-64
2022/04/25 08:33:02;;;;;;;14.20;9.43;;;15.50;73.10;;;;;;5032952;28;20022;-64
2022/04/25 08:35:28;;;;;;;14.07;10.07;;;15.60;73.20;;;;;;5033204;28;20104;-63
2022/04/25 08:37:54;;;;;;;14.05;10.48;;;15.60;72.80;;;;;;5033247;28;20060;-65
2022/04/25 08:40:21;;;;;;;13.52;10.40;;;15.60;72.50;;;;;;5033375;28;20444;-66
2022/04/25 08:42:47;;;;;;;13.15;9.70;;;15.70;72.30;;;;;;5033053;28;20028;-65
2022/04/25 08:45:13;;;;;;;14.57;9.80;;;15.80;72.30;;;;;;5033240;28;20025;-62
2022/04/25 08:47:52;;;;;;;12.73;10.57;;;15.80;71.30;;;;;;5032974;28;20445;-64
2022/04/25 08:50:19;;;;;;;14.13;10.77;;;15.80;70.20;;;;;;5032990;28;20038;-65
2022/04/25 08:52:46;;;;;;;13.27;9.88;;;15.80;70.50;;;;;;5032960;28;20071;-63
2022/04/25 08:55:13;;;;;;;12.25;9.30;;;15.80;70.80;;;;;;5033270;28;20034;-66
2022/04/25 08:57:40;;;;;;;14.02;9.98;;;15.70;70.50;;;;;;5033255;28;20025;-66
2022/04/25 09:00:07;;;;;;;12.45;10.57;;;15.80;70.60;;;;;;5032765;28;20121;-66
2022/04/25 09:02:34;;;;;;;16.67;12.38;;;15.80;70.00;;;;;;5015252;28;20139;-66
2022/04/25 09:05:01;;;;;;;15.50;12.23;;;15.70;70.90;;;;;;5033100;28;20534;-60
2022/04/25 09:07:27;;;;;;;15.50;13.98;;;15.70;71.60;;;;;;5032989;28;20052;-60
2022/04/25 09:09:54;;;;;;;16.35;13.68;;;15.70;72.00;;;;;;5032902;28;20061;-64
2022/04/25 09:12:20;;;;;;;15.25;12.80;;;15.60;72.00;;;;;;5033084;28;20110;-66
2022/04/25 09:14:46;;;;;;;17.13;13.00;;;15.40;72.30;;;;;;5032493;28;20494;-59
2022/04/25 09:17:12;;;;;;;15.27;12.55;;;15.50;72.90;;;;;;5032653;28;20112;-65
2022/04/25 09:19:39;;;;;;;15.65;13.73;;;15.50;72.90;;;;;;5032846;28;20033;-61
2022/04/25 09:22:09;;;;;;;17.25;14.40;;;15.50;72.90;;;;;;5033180;28;20025;-57
2022/04/25 09:24:44;;;;;;;16.42;13.38;;;15.40;73.20;;;;;;5032658;28;20096;-62
2022/04/25 09:27:18;;;;;;;17.17;14.60;;;15.50;73.50;;;;;;5032650;28;20388;-63
2022/04/25 09:29:46;;;;;;;16.30;14.60;;;15.50;73.90;;;;;;5033917;28;20033;-58
2022/04/25 09:32:13;;;;;;;16.80;15.07;;;15.50;73.30;;;;;;5036863;28;20052;-66
2022/04/25 09:37:47;;;;;;;15.60;14.02;;;15.30;72.20;;;;;;5036825;28;20031;-65
2022/04/25 09:40:18;;;;;;;14.13;12.73;;;15.30;72.60;;;;;;5036085;28;20034;-61
2022/04/25 09:42:44;;;;;;;14.98;13.48;;;15.30;71.70;;;;;;5036532;28;20497;-57
2022/04/25 09:45:09;;;;;;;14.55;12.80;;;15.30;71.50;;;;;;5036276;28;20026;-62
2022/04/25 09:47:36;;;;;;;14.55;12.57;;;15.30;71.00;;;;;;5036370;28;20489;-61
2022/04/25 09:50:10;;;;;;;14.05;12.68;;;15.50;71.70;;;;;;5036221;28;20562;-61
2022/04/25 09:53:00;;;;;;;14.52;12.40;;;15.50;71.10;;;;;;5036409;28;20021;-58
2022/04/25 09:55:29;;;;;;;14.75;12.27;;;15.60;70.90;;;;;;5036045;28;20455;-61
2022/04/25 09:57:55;;;;;;;13.07;11.70;;;15.60;71.10;;;;;;5035902;28;20110;-63
2022/04/25 10:00:38;;;;;;;14.07;12.63;;;15.60;71.00;;;;;;5036049;28;20062;-66
2022/04/25 10:03:05;;;;;;;13.90;11.65;;;15.70;70.60;;;;;;5036152;28;20033;-59
2022/04/25 10:05:45;;;;;;;12.60;11.43;;;15.80;71.00;;;;;;5036116;28;20044;-65
2022/04/25 10:08:13;;;;;;;13.82;12.02;;;15.80;70.90;;;;;;5036075;28;20022;-66
2022/04/25 10:10:44;;;;;;;12.82;11.52;;;15.90;70.80;;;;;;5035907;28;20029;-64
2022/04/25 10:13:10;;;;;;;16.30;12.52;;;15.90;70.30;;;;;;5035692;28;20426;-57
2022/04/25 10:15:37;;;;;;;14.68;11.82;;;16.00;69.70;;;;;;5035670;28;20022;-64
2022/04/25 10:18:05;;;;;;;13.45;11.05;;;16.00;70.30;;;;;;5035869;28;20032;-64
2022/04/25 10:20:34;;;;;;;11.13;10.02;;;16.00;70.50;;;;;;5035604;28;20559;-60
2022/04/25 10:23:01;;;;;;;12.75;10.95;;;16.00;70.60;;;;;;5035820;28;20037;-66
2022/04/25 10:25:27;;;;;;;12.43;10.20;;;16.00;70.70;;;;;;5035253;28;20030;-57
2022/04/25 10:27:53;;;;;;;11.63;10.27;;;16.00;71.00;;;;;;5035181;28;20364;-60
2022/04/25 10:30:20;;;;;;;11.05;9.93;;;16.10;71.30;;;;;;5035541;28;20045;-66
2022/04/25 10:32:46;;;;;;;14.07;11.20;;;16.10;71.50;;;;;;5035732;28;20021;-65
2022/04/25 10:35:30;;;;;;;12.50;11.18;;;16.10;71.80;;;;;;5034142;28;20496;-65
2022/04/25 10:37:55;;;;;;;15.80;11.18;;;16.10;72.60;;;;;;5035507;28;20028;-64
2022/04/25 10:46:13;;;;;;;15.10;11.75;;;16.10;72.70;;;;;;5035487;28;20032;-56
2022/04/25 10:49:09;;;;;;;12.52;10.73;;;16.10;73.00;;;;;;5035261;28;20025;-53
2022/04/25 10:51:39;;;;;;;14.23;12.77;;;16.10;73.00;;;;;;5035287;28;20029;-59
2022/04/25 10:54:05;;;;;;;14.90;13.10;;;16.00;69.90;;;;;;5035219;28;20442;-57
2022/04/25 10:56:32;;;;;;;17.13;13.98;;;15.90;68.90;;;;;;5034732;28;20029;-65
2022/04/25 10:59:22;;;;;;;18.25;13.82;;;15.90;69.10;;;;;;5033682;28;20386;-60
2022/04/25 11:01:48;;;;;;;16.33;12.60;;;15.90;69.10;;;;;;5034938;28;20033;-55
2022/04/25 11:04:15;;;;;;;15.02;12.98;;;16.00;68.30;;;;;;5035208;28;20030;-54
2022/04/25 11:06:41;;;;;;;13.40;11.93;;;16.00;67.60;;;;;;5034934;28;20029;-54
2022/04/25 11:09:07;;;;;;;13.00;11.63;;;16.10;67.50;;;;;;5034901;28;20124;-55
2022/04/25 11:11:51;;;;;;;13.02;11.88;;;16.00;66.50;;;;;;5034489;28;20112;-60
2022/04/25 11:14:17;;;;;;;12.15;11.07;;;16.00;67.10;;;;;;5034708;28;20371;-59
2022/04/25 11:17:03;;;;;;;12.50;11.20;;;16.00;67.40;;;;;;5034845;28;20028;-60
2022/04/25 11:19:45;;;;;;;15.90;12.15;;;16.10;68.00;;;;;;5034495;28;20031;-57
2022/04/25 11:22:27;;;;;;;12.85;11.63;;;16.20;68.10;;;;;;5034581;28;20021;-52
2022/04/25 11:24:53;;;;;;;;;;;16.20;67.30;;;;;;5034578;28;20037;-55
2022/04/25 11:27:21;;;;;;;12.63;10.85;;;16.20;67.40;;;;;;5034401;28;19913;-67
2022/04/25 11:30:13;;;;;;;11.23;9.43;;;16.20;67.30;;;;;;5034544;28;20056;-65
2022/04/25 11:32:40;;;;;;;14.23;9.68;;;16.20;66.90;;;;;;5034117;28;20019;-66
2022/04/25 11:35:07;;;;;;;10.32;9.23;;;16.20;66.40;;;;;;5034680;28;20041;-65
2022/04/25 11:37:34;;;;;;;9.55;8.55;;;16.20;66.20;;;;;;5034292;28;20083;-58
2022/04/25 11:40:06;;;;;;;9.07;7.95;;;16.20;65.20;;;;;;5034160;28;20382;-59
2022/04/25 11:42:33;;;;;;;9.68;8.77;;;16.30;64.80;;;;;;5034211;28;20021;-59
2022/04/25 11:44:59;;;;;;;11.07;7.85;;;16.30;64.70;;;;;;5034134;28;20071;-57
2022/04/25 11:47:25;;;;;;;6.95;6.25;;;16.30;65.80;;;;;;5034213;28;20428;-66
2022/04/25 11:49:56;;;;;;;10.02;6.88;;;16.30;66.80;;;;;;5034165;28;20510;-56
2022/04/25 11:52:22;;;;;;;8.85;7.10;;;16.30;67.20;;;;;;5033698;28;20467;-66
2022/04/25 11:54:48;;;;;;;7.85;7.10;;;16.30;67.20;;;;;;5033731;28;20026;-65
2022/04/25 11:57:14;;;;;;;7.18;6.47;;;16.20;67.60;;;;;;5033899;28;20026;-55
2022/04/25 11:59:39;;;;;;;9.13;6.45;;;16.20;67.90;;;;;;5033852;28;20027;-62
2022/04/25 12:02:05;;;;;;;6.88;6.18;;;16.20;68.10;;;;;;5033865;28;20486;-66
2022/04/25 12:04:33;;;;;;;7.88;7.07;;;16.20;68.80;;;;;;5033939;28;20105;-64
2022/04/25 12:07:03;;;;;;;8.18;7.13;;;16.20;69.70;;;;;;5033460;28;20379;-66
2022/04/25 12:18:13;;;;;;;10.32;8.98;;;16.20;72.20;;;;;;5033802;28;20068;-54
2022/04/25 12:20:42;;;;;;;9.88;8.88;;;16.20;72.60;;;;;;5033312;28;20049;-66
2022/04/25 12:23:08;;;;;;;11.15;9.50;;;16.20;73.00;;;;;;5033369;28;20063;-66
2022/04/25 12:25:43;;;;;;;11.20;10.10;;;16.20;72.30;;;;;;5033375;28;20144;-62
2022/04/25 12:28:16;;;;;;;12.20;10.98;;;16.20;72.30;;;;;;5033457;28;20021;-58
2022/04/25 12:30:50;;;;;;;11.93;10.25;;;16.10;71.80;;;;;;5032064;28;20049;-56
2022/04/25 12:33:19;;;;;;;14.02;10.65;;;16.10;72.00;;;;;;5033320;28;20083;-61
2022/04/25 12:35:47;;;;;;;11.30;10.20;;;16.10;72.30;;;;;;5033272;28;20032;-57
2022/04/25 12:38:37;;;;;;;13.85;10.50;;;16.10;72.30;;;;;;5032993;28;20045;-57
2022/04/25 12:41:04;;;;;;;10.63;9.52;;;16.00;71.90;;;;;;5033375;28;20025;-66
2022/04/25 12:43:41;;;;;;;10.68;9.55;;;16.00;71.80;;;;;;5032963;28;20084;-65
2022/04/25 12:46:06;;;;;;;9.15;8.32;;;16.00;71.50;;;;;;5033084;28;20025;-66
2022/04/25 12:48:59;;;;;;;9.55;7.85;;;16.10;71.80;;;;;;5033280;28;20025;-65
2022/04/25 12:51:29;;;;;;;9.13;6.82;;;16.10;70.20;;;;;;5033342;28;20083;-65
2022/04/25 12:53:54;;;;;;;7.50;6.80;;;16.10;70.00;;;;;;5032689;28;20026;-65
2022/04/25 12:56:28;;;;;;;6.60;5.97;;;16.10;69.60;;;;;;5032950;28;20108;-66
2022/04/25 12:58:54;;;;;;;9.77;6.20;;;16.10;69.50;;;;;;5033014;28;20429;-66
2022/04/25 13:01:35;;;;;;;7.10;6.47;;;16.10;69.40;;;;;;5033133;28;20507;-65
2022/04/25 13:04:11;;;;;;;7.25;6.55;;;16.10;69.00;;;;;;5032099;28;20029;-63
2022/04/25 13:06:37;;;;;;;6.90;6.28;;;16.10;69.20;;;;;;5032566;28;20376;-60
2022/04/25 13:09:04;;;;;;;7.32;6.43;;;16.10;68.80;;;;;;5032802;28;20131;-64
2022/04/25 13:11:29;;;;;;;7.97;7.18;;;16.10;69.70;;;;;;5032877;28;20030;-58
2022/04/25 13:13:56;;;;;;;7.63;6.93;;;16.10;69.80;;;;;;5032782;28;20032;-66
2022/04/25 13:16:22;;;;;;;7.47;6.88;;;16.10;69.80;;;;;;5032778;28;20036;-65
2022/04/25 13:18:48;;;;;;;9.75;7.00;;;16.10;69.60;;;;;;5032607;28;20378;-66
2022/04/25 13:21:14;;;;;;;8.50;6.53;;;16.10;69.60;;;;;;5032428;28;20460;-65